sensor_id;sensor_type;location;lat;lon;timestamp;pressure;altitude;pressure_sealevel;temperature;humidity
15193;BME280;7697;51.630;7.484;2023-03-20T00:04:54;101110.03;;;11.58;95.84
15193;BME280;7697;51.630;7.484;2023-03-20T00:09:56;101133.91;;;11.58;96.41
15193;BME280;7697;51.630;7.484;2023-03-20T00:14:59;101138.00;;;11.60;96.25
15193;BME280;7697;51.630;7.484;2023-03-20T00:20:03;101129.50;;;11.44;96.26
15193;BME280;7697;51.630;7.484;2023-03-20T00:25:06;101145.28;;;11.52;95.92
15193;BME280;7697;51.630;7.484;2023-03-20T00:30:20;101150.28;;;11.40;95.91
15193;BME280;7697;51.630;7.484;2023-03-20T00:35:27;101144.84;;;11.27;95.59
15193;BME280;7697;51.630;7.484;2023-03-20T00:40:30;101137.75;;;11.13;95.53
15193;BME280;7697;51.630;7.484;2023-03-20T00:45:33;101148.94;;;11.08;95.74
15193;BME280;7697;51.630;7.484;2023-03-20T00:50:37;101148.94;;;11.08;95.76
15193;BME280;7697;51.630;7.484;2023-03-20T00:55:39;101142.75;;;11.01;95.74
15193;BME280;7697;51.630;7.484;2023-03-20T01:00:42;101131.00;;;10.89;95.79
15193;BME280;7697;51.630;7.484;2023-03-20T01:05:46;101139.84;;;10.96;95.57
15193;BME280;7697;51.630;7.484;2023-03-20T01:10:50;101137.00;;;10.98;95.74
15193;BME280;7697;51.630;7.484;2023-03-20T01:15:53;101122.06;;;10.90;95.41
15193;BME280;7697;51.630;7.484;2023-03-20T01:20:57;101134.38;;;10.83;95.36
15193;BME280;7697;51.630;7.484;2023-03-20T01:25:59;101138.97;;;10.89;95.60
15193;BME280;7697;51.630;7.484;2023-03-20T01:31:00;101138.88;;;10.82;95.46
15193;BME280;7697;51.630;7.484;2023-03-20T01:36:04;101149.63;;;10.96;95.42
15193;BME280;7697;51.630;7.484;2023-03-20T01:41:08;101154.75;;;10.97;95.14
15193;BME280;7697;51.630;7.484;2023-03-20T01:46:17;101153.47;;;10.93;94.96
15193;BME280;7697;51.630;7.484;2023-03-20T01:51:23;101144.56;;;10.79;95.22
15193;BME280;7697;51.630;7.484;2023-03-20T01:56:27;101175.22;;;10.88;94.98
15193;BME280;7697;51.630;7.484;2023-03-20T02:01:32;101174.34;;;10.81;94.87
15193;BME280;7697;51.630;7.484;2023-03-20T02:06:36;101155.16;;;10.79;94.73
15193;BME280;7697;51.630;7.484;2023-03-20T02:11:40;101150.59;;;10.73;94.35
15193;BME280;7697;51.630;7.484;2023-03-20T02:16:44;101135.91;;;10.71;94.73
15193;BME280;7697;51.630;7.484;2023-03-20T02:22:15;101148.03;;;10.65;94.05
15193;BME280;7697;51.630;7.484;2023-03-20T02:27:30;101170.44;;;10.63;94.43
15193;BME280;7697;51.630;7.484;2023-03-20T02:38:19;101163.59;;;10.53;94.41
15193;BME280;7697;51.630;7.484;2023-03-20T02:43:32;101162.22;;;10.58;94.31
15193;BME280;7697;51.630;7.484;2023-03-20T02:48:40;101147.72;;;10.53;94.67
15193;BME280;7697;51.630;7.484;2023-03-20T02:53:51;101141.75;;;10.51;94.22
15193;BME280;7697;51.630;7.484;2023-03-20T02:59:01;101166.50;;;10.59;94.13
15193;BME280;7697;51.630;7.484;2023-03-20T03:04:10;101170.06;;;10.51;94.26
15193;BME280;7697;51.630;7.484;2023-03-20T03:09:19;101170.44;;;10.48;94.17
15193;BME280;7697;51.630;7.484;2023-03-20T03:14:29;101176.56;;;10.48;94.24
15193;BME280;7697;51.630;7.484;2023-03-20T03:19:35;101168.59;;;10.48;93.91
15193;BME280;7697;51.630;7.484;2023-03-20T03:24:43;101174.84;;;10.56;93.63
15193;BME280;7697;51.630;7.484;2023-03-20T03:29:50;101177.84;;;10.52;93.59
15193;BME280;7697;51.630;7.484;2023-03-20T03:34:53;101172.97;;;10.56;93.87
15193;BME280;7697;51.630;7.484;2023-03-20T03:40:03;101132.34;;;10.49;93.60
15193;BME280;7697;51.630;7.484;2023-03-20T03:45:13;101140.03;;;10.44;93.71
15193;BME280;7697;51.630;7.484;2023-03-20T03:50:20;101119.88;;;10.43;94.03
15193;BME280;7697;51.630;7.484;2023-03-20T03:55:33;101120.94;;;10.48;93.81
15193;BME280;7697;51.630;7.484;2023-03-20T04:00:36;101116.75;;;10.39;93.64
15193;BME280;7697;51.630;7.484;2023-03-20T04:05:43;101116.75;;;10.39;94.06
15193;BME280;7697;51.630;7.484;2023-03-20T04:10:48;101115.94;;;10.39;93.48
15193;BME280;7697;51.630;7.484;2023-03-20T04:15:50;101134.47;;;10.39;93.70
15193;BME280;7697;51.630;7.484;2023-03-20T04:20:52;101137.13;;;10.24;93.36
15193;BME280;7697;51.630;7.484;2023-03-20T04:25:55;101146.97;;;10.30;93.10
15193;BME280;7697;51.630;7.484;2023-03-20T04:30:59;101145.97;;;10.31;93.46
15193;BME280;7697;51.630;7.484;2023-03-20T04:36:01;101139.59;;;10.26;93.03
15193;BME280;7697;51.630;7.484;2023-03-20T04:41:05;101132.09;;;10.29;93.36
15193;BME280;7697;51.630;7.484;2023-03-20T04:46:08;101129.19;;;10.24;92.72
15193;BME280;7697;51.630;7.484;2023-03-20T04:51:09;101118.59;;;10.24;93.24
15193;BME280;7697;51.630;7.484;2023-03-20T04:56:12;101110.47;;;10.11;92.39
15193;BME280;7697;51.630;7.484;2023-03-20T05:01:14;101100.25;;;10.08;92.13
15193;BME280;7697;51.630;7.484;2023-03-20T05:06:16;101113.81;;;10.05;91.91
15193;BME280;7697;51.630;7.484;2023-03-20T05:11:21;101104.41;;;10.02;91.58
15193;BME280;7697;51.630;7.484;2023-03-20T05:16:22;101104.31;;;9.96;91.65
15193;BME280;7697;51.630;7.484;2023-03-20T05:21:24;101103.25;;;9.90;91.52
15193;BME280;7697;51.630;7.484;2023-03-20T05:26:27;101104.50;;;9.79;90.91
15193;BME280;7697;51.630;7.484;2023-03-20T05:31:30;101115.56;;;9.83;91.11
15193;BME280;7697;51.630;7.484;2023-03-20T05:36:32;101119.56;;;9.79;91.08
15193;BME280;7697;51.630;7.484;2023-03-20T05:41:36;101123.84;;;9.65;91.71
15193;BME280;7697;51.630;7.484;2023-03-20T05:46:37;101129.66;;;9.75;92.08
15193;BME280;7697;51.630;7.484;2023-03-20T05:51:39;101126.75;;;9.70;91.85
15193;BME280;7697;51.630;7.484;2023-03-20T05:56:43;101116.63;;;9.74;92.00
15193;BME280;7697;51.630;7.484;2023-03-20T06:01:44;101132.38;;;9.67;92.28
15193;BME280;7697;51.630;7.484;2023-03-20T06:06:46;101140.63;;;9.72;92.28
15193;BME280;7697;51.630;7.484;2023-03-20T06:11:50;101138.50;;;9.68;92.72
15193;BME280;7697;51.630;7.484;2023-03-20T06:16:52;101140.03;;;9.62;92.96
15193;BME280;7697;51.630;7.484;2023-03-20T06:21:54;101140.78;;;9.56;93.45
15193;BME280;7697;51.630;7.484;2023-03-20T06:26:57;101152.63;;;9.60;93.36
15193;BME280;7697;51.630;7.484;2023-03-20T06:31:59;101147.97;;;9.62;93.40
15193;BME280;7697;51.630;7.484;2023-03-20T06:37:01;101168.78;;;9.65;93.78
15193;BME280;7697;51.630;7.484;2023-03-20T06:42:04;101157.56;;;9.63;94.19
15193;BME280;7697;51.630;7.484;2023-03-20T06:47:06;101162.03;;;9.63;93.80
15193;BME280;7697;51.630;7.484;2023-03-20T06:52:13;101167.31;;;9.63;94.08
15193;BME280;7697;51.630;7.484;2023-03-20T06:57:17;101166.50;;;9.62;94.47
15193;BME280;7697;51.630;7.484;2023-03-20T07:02:19;101171.78;;;9.62;94.36
15193;BME280;7697;51.630;7.484;2023-03-20T07:07:21;101181.72;;;9.60;94.20
15193;BME280;7697;51.630;7.484;2023-03-20T07:12:24;101180.72;;;9.61;93.59
15193;BME280;7697;51.630;7.484;2023-03-20T07:17:28;101170.47;;;9.58;93.51
15193;BME280;7697;51.630;7.484;2023-03-20T07:22:30;101187.66;;;9.62;93.36
15193;BME280;7697;51.630;7.484;2023-03-20T07:27:33;101203.09;;;9.73;92.45
15193;BME280;7697;51.630;7.484;2023-03-20T07:32:35;101207.31;;;9.83;92.30
15193;BME280;7697;51.630;7.484;2023-03-20T07:37:37;101212.16;;;9.94;91.37
15193;BME280;7697;51.630;7.484;2023-03-20T07:42:40;101205.25;;;9.93;90.51
15193;BME280;7697;51.630;7.484;2023-03-20T07:47:42;101210.53;;;9.93;90.85
15193;BME280;7697;51.630;7.484;2023-03-20T07:52:45;101198.50;;;10.05;90.03
15193;BME280;7697;51.630;7.484;2023-03-20T07:57:49;101202.44;;;10.09;89.54
15193;BME280;7697;51.630;7.484;2023-03-20T08:02:50;101213.53;;;10.27;89.12
15193;BME280;7697;51.630;7.484;2023-03-20T08:07:52;101195.75;;;10.36;88.72
15193;BME280;7697;51.630;7.484;2023-03-20T08:12:55;101200.56;;;10.47;88.25
15193;BME280;7697;51.630;7.484;2023-03-20T08:17:57;101209.16;;;10.64;87.82
15193;BME280;7697;51.630;7.484;2023-03-20T08:22:59;101202.56;;;10.60;86.60
15193;BME280;7697;51.630;7.484;2023-03-20T08:28:03;101209.06;;;10.72;86.36
15193;BME280;7697;51.630;7.484;2023-03-20T08:33:04;101214.25;;;10.80;85.29
15193;BME280;7697;51.630;7.484;2023-03-20T08:38:06;101212.41;;;10.95;84.44
15193;BME280;7697;51.630;7.484;2023-03-20T08:43:12;101205.22;;;11.10;84.74
15193;BME280;7697;51.630;7.484;2023-03-20T08:48:14;101228.31;;;11.31;83.48
15193;BME280;7697;51.630;7.484;2023-03-20T08:53:16;101215.00;;;11.24;81.81
15193;BME280;7697;51.630;7.484;2023-03-20T08:58:21;101217.63;;;11.24;80.87
15193;BME280;7697;51.630;7.484;2023-03-20T09:03:23;101208.28;;;11.07;81.11
15193;BME280;7697;51.630;7.484;2023-03-20T09:08:25;101200.38;;;11.14;79.88
15193;BME280;7697;51.630;7.484;2023-03-20T09:13:28;101210.31;;;11.26;79.19
15193;BME280;7697;51.630;7.484;2023-03-20T09:18:30;101224.00;;;11.30;79.35
15193;BME280;7697;51.630;7.484;2023-03-20T09:23:32;101208.78;;;11.39;78.84
15193;BME280;7697;51.630;7.484;2023-03-20T09:28:35;101210.69;;;11.23;77.63
15193;BME280;7697;51.630;7.484;2023-03-20T09:33:37;101218.97;;;11.35;77.39
15193;BME280;7697;51.630;7.484;2023-03-20T09:38:39;101217.16;;;11.36;77.40
15193;BME280;7697;51.630;7.484;2023-03-20T09:43:54;101210.25;;;11.41;77.03
15193;BME280;7697;51.630;7.484;2023-03-20T09:49:06;101222.34;;;11.44;76.13
15193;BME280;7697;51.630;7.484;2023-03-20T09:54:17;101223.59;;;11.48;76.34
15193;BME280;7697;51.630;7.484;2023-03-20T09:59:24;101219.28;;;11.47;75.42
15193;BME280;7697;51.630;7.484;2023-03-20T10:04:28;101232.00;;;11.51;75.64
15193;BME280;7697;51.630;7.484;2023-03-20T10:09:30;101222.38;;;11.50;74.82
15193;BME280;7697;51.630;7.484;2023-03-20T10:14:39;101226.69;;;11.51;74.42
15193;BME280;7697;51.630;7.484;2023-03-20T10:19:43;101208.50;;;11.48;74.89
15193;BME280;7697;51.630;7.484;2023-03-20T10:24:49;101234.19;;;11.69;75.75
15193;BME280;7697;51.630;7.484;2023-03-20T10:30:01;101225.84;;;11.72;73.58
15193;BME280;7697;51.630;7.484;2023-03-20T10:35:20;101217.09;;;11.72;73.64
15193;BME280;7697;51.630;7.484;2023-03-20T10:40:26;101211.69;;;11.80;73.39
15193;BME280;7697;51.630;7.484;2023-03-20T10:45:52;101196.56;;;11.80;73.56
15193;BME280;7697;51.630;7.484;2023-03-20T10:50:59;101191.34;;;11.93;74.04
15193;BME280;7697;51.630;7.484;2023-03-20T10:56:05;101197.31;;;11.95;73.10
15193;BME280;7697;51.630;7.484;2023-03-20T11:01:12;101203.13;;;11.84;70.68
15193;BME280;7697;51.630;7.484;2023-03-20T11:06:16;101189.34;;;11.74;70.51
15193;BME280;7697;51.630;7.484;2023-03-20T11:11:24;101187.56;;;11.81;69.77
15193;BME280;7697;51.630;7.484;2023-03-20T11:16:33;101174.94;;;11.83;69.40
15193;BME280;7697;51.630;7.484;2023-03-20T11:21:44;101182.00;;;11.97;69.99
15193;BME280;7697;51.630;7.484;2023-03-20T11:26:46;101169.59;;;12.05;68.71
15193;BME280;7697;51.630;7.484;2023-03-20T11:31:50;101163.91;;;12.08;66.46
15193;BME280;7697;51.630;7.484;2023-03-20T11:36:56;101167.00;;;12.18;68.07
15193;BME280;7697;51.630;7.484;2023-03-20T11:42:00;101154.34;;;12.13;67.08
15193;BME280;7697;51.630;7.484;2023-03-20T11:47:05;101164.59;;;12.23;66.48
15193;BME280;7697;51.630;7.484;2023-03-20T11:52:13;101153.56;;;12.26;66.21
15193;BME280;7697;51.630;7.484;2023-03-20T11:57:30;101165.94;;;12.40;66.42
15193;BME280;7697;51.630;7.484;2023-03-20T12:02:34;101160.06;;;12.51;65.53
15193;BME280;7697;51.630;7.484;2023-03-20T12:07:37;101161.47;;;12.54;66.57
15193;BME280;7697;51.630;7.484;2023-03-20T12:12:44;101151.78;;;12.74;66.09
15193;BME280;7697;51.630;7.484;2023-03-20T12:17:54;101155.69;;;12.85;66.19
15193;BME280;7697;51.630;7.484;2023-03-20T12:23:03;101141.97;;;12.74;64.87
15193;BME280;7697;51.630;7.484;2023-03-20T12:28:13;101149.44;;;12.51;66.04
15193;BME280;7697;51.630;7.484;2023-03-20T12:33:28;101159.47;;;12.62;66.40
15193;BME280;7697;51.630;7.484;2023-03-20T12:38:33;101163.59;;;12.65;66.89
15193;BME280;7697;51.630;7.484;2023-03-20T12:43:46;101145.97;;;12.51;68.01
15193;BME280;7697;51.630;7.484;2023-03-20T12:49:01;101166.41;;;12.50;68.09
15193;BME280;7697;51.630;7.484;2023-03-20T12:54:18;101157.50;;;12.30;68.37
15193;BME280;7697;51.630;7.484;2023-03-20T12:59:28;101153.56;;;12.26;70.56
15193;BME280;7697;51.630;7.484;2023-03-20T13:04:54;101156.84;;;12.28;70.90
15193;BME280;7697;51.630;7.484;2023-03-20T13:10:11;101151.53;;;12.21;70.45
15193;BME280;7697;51.630;7.484;2023-03-20T13:15:29;101144.06;;;12.03;71.41
15193;BME280;7697;51.630;7.484;2023-03-20T13:20:37;101139.88;;;11.88;71.95
15193;BME280;7697;51.630;7.484;2023-03-20T13:25:55;101135.28;;;11.75;71.82
15193;BME280;7697;51.630;7.484;2023-03-20T13:31:06;101130.72;;;11.69;71.87
15193;BME280;7697;51.630;7.484;2023-03-20T13:36:28;101142.22;;;11.76;72.25
15193;BME280;7697;51.630;7.484;2023-03-20T13:41:35;101136.56;;;11.79;71.35
15193;BME280;7697;51.630;7.484;2023-03-20T13:46:40;101136.56;;;11.79;71.15
15193;BME280;7697;51.630;7.484;2023-03-20T13:51:48;101124.22;;;11.72;69.90
15193;BME280;7697;51.630;7.484;2023-03-20T13:56:58;101124.16;;;11.65;70.58
15193;BME280;7697;51.630;7.484;2023-03-20T14:02:10;101131.97;;;11.73;70.87
15193;BME280;7697;51.630;7.484;2023-03-20T14:07:29;101135.28;;;11.75;71.10
15193;BME280;7697;51.630;7.484;2023-03-20T14:12:32;101116.53;;;11.77;71.81
15193;BME280;7697;51.630;7.484;2023-03-20T14:17:34;101116.75;;;11.82;71.75
15193;BME280;7697;51.630;7.484;2023-03-20T14:22:38;101113.28;;;11.81;72.01
15193;BME280;7697;51.630;7.484;2023-03-20T14:27:53;101103.78;;;11.72;72.06
15193;BME280;7697;51.630;7.484;2023-03-20T14:32:58;101109.81;;;11.81;72.02
15193;BME280;7697;51.630;7.484;2023-03-20T14:38:09;101092.31;;;11.65;72.52
15193;BME280;7697;51.630;7.484;2023-03-20T14:43:22;101095.13;;;11.57;73.96
15193;BME280;7697;51.630;7.484;2023-03-20T14:48:32;101111.75;;;11.44;74.83
15193;BME280;7697;51.630;7.484;2023-03-20T14:53:38;101094.56;;;11.40;74.96
15193;BME280;7697;51.630;7.484;2023-03-20T14:58:55;101085.63;;;11.41;75.85
15193;BME280;7697;51.630;7.484;2023-03-20T15:04:01;101080.53;;;11.46;76.13
15193;BME280;7697;51.630;7.484;2023-03-20T15:09:09;101084.00;;;11.47;76.51
15193;BME280;7697;51.630;7.484;2023-03-20T15:14:18;101075.78;;;11.35;77.09
15193;BME280;7697;51.630;7.484;2023-03-20T15:19:22;101066.38;;;11.33;78.10
15193;BME280;7697;51.630;7.484;2023-03-20T15:24:29;101066.41;;;11.39;77.56
15193;BME280;7697;51.630;7.484;2023-03-20T15:29:31;101068.69;;;11.42;78.10
15193;BME280;7697;51.630;7.484;2023-03-20T15:34:34;101071.41;;;11.27;77.65
15193;BME280;7697;51.630;7.484;2023-03-20T15:39:43;101053.56;;;11.15;78.86
15193;BME280;7697;51.630;7.484;2023-03-20T15:44:46;101064.03;;;11.23;79.36
15193;BME280;7697;51.630;7.484;2023-03-20T15:49:51;101057.59;;;11.11;80.08
15193;BME280;7697;51.630;7.484;2023-03-20T15:54:56;101046.09;;;10.97;81.25
15193;BME280;7697;51.630;7.484;2023-03-20T15:59:59;101054.09;;;11.04;81.93
15193;BME280;7697;51.630;7.484;2023-03-20T16:05:03;101051.81;;;11.01;82.18
15193;BME280;7697;51.630;7.484;2023-03-20T16:10:15;101053.91;;;11.05;83.44
15193;BME280;7697;51.630;7.484;2023-03-20T16:15:18;101033.69;;;10.83;83.55
15193;BME280;7697;51.630;7.484;2023-03-20T16:20:22;101047.97;;;10.82;84.45
15193;BME280;7697;51.630;7.484;2023-03-20T16:25:27;101044.69;;;10.80;85.00
15193;BME280;7697;51.630;7.484;2023-03-20T16:30:30;101032.53;;;10.64;85.23
15193;BME280;7697;51.630;7.484;2023-03-20T16:35:38;101034.03;;;10.73;85.59
15193;BME280;7697;51.630;7.484;2023-03-20T16:40:42;101048.34;;;10.79;85.86
15193;BME280;7697;51.630;7.484;2023-03-20T16:45:47;101054.09;;;10.82;86.36
15193;BME280;7697;51.630;7.484;2023-03-20T16:50:58;101054.16;;;10.89;86.25
15193;BME280;7697;51.630;7.484;2023-03-20T16:56:02;101036.88;;;10.72;86.91
15193;BME280;7697;51.630;7.484;2023-03-20T17:01:09;101059.78;;;10.79;87.18
15193;BME280;7697;51.630;7.484;2023-03-20T17:06:35;101040.94;;;10.74;87.54
15193;BME280;7697;51.630;7.484;2023-03-20T17:11:44;101035.53;;;10.61;87.06
15193;BME280;7697;51.630;7.484;2023-03-20T17:16:50;101052.78;;;10.72;87.73
15193;BME280;7697;51.630;7.484;2023-03-20T17:21:54;101045.94;;;10.63;87.53
15193;BME280;7697;51.630;7.484;2023-03-20T17:26:58;101044.84;;;10.57;88.02
15193;BME280;7697;51.630;7.484;2023-03-20T17:32:00;101057.72;;;10.60;87.95
15193;BME280;7697;51.630;7.484;2023-03-20T17:37:02;101053.09;;;10.47;88.01
15193;BME280;7697;51.630;7.484;2023-03-20T17:42:14;101065.34;;;10.48;88.89
15193;BME280;7697;51.630;7.484;2023-03-20T17:47:21;101081.50;;;10.53;88.51
15193;BME280;7697;51.630;7.484;2023-03-20T17:52:24;101066.72;;;10.44;88.42
15193;BME280;7697;51.630;7.484;2023-03-20T17:57:31;101067.13;;;10.27;90.12
15193;BME280;7697;51.630;7.484;2023-03-20T18:02:33;101066.28;;;10.11;90.96
15193;BME280;7697;51.630;7.484;2023-03-20T18:07:36;101073.84;;;10.14;91.51
15193;BME280;7697;51.630;7.484;2023-03-20T18:12:39;101079.16;;;10.14;91.49
15193;BME280;7697;51.630;7.484;2023-03-20T18:17:41;101058.06;;;10.06;91.73
15193;BME280;7697;51.630;7.484;2023-03-20T18:22:42;101046.31;;;10.09;92.08
15193;BME280;7697;51.630;7.484;2023-03-20T18:27:46;101053.69;;;10.13;91.57
15193;BME280;7697;51.630;7.484;2023-03-20T18:32:48;101044.75;;;10.14;91.67
15193;BME280;7697;51.630;7.484;2023-03-20T18:37:50;101048.50;;;10.20;91.65
15193;BME280;7697;51.630;7.484;2023-03-20T18:42:54;101047.56;;;10.13;91.83
15193;BME280;7697;51.630;7.484;2023-03-20T18:47:57;101041.72;;;10.03;92.36
15193;BME280;7697;51.630;7.484;2023-03-20T18:53:04;101046.66;;;10.06;91.99
15193;BME280;7697;51.630;7.484;2023-03-20T18:58:18;101043.09;;;10.13;92.42
15193;BME280;7697;51.630;7.484;2023-03-20T19:03:21;101044.09;;;10.12;92.42
15193;BME280;7697;51.630;7.484;2023-03-20T19:08:24;101040.28;;;10.15;91.93
15193;BME280;7697;51.630;7.484;2023-03-20T19:13:27;101053.88;;;10.27;91.42
15193;BME280;7697;51.630;7.484;2023-03-20T19:18:29;101061.25;;;10.31;91.44
15193;BME280;7697;51.630;7.484;2023-03-20T19:23:31;101047.94;;;10.25;91.34
15193;BME280;7697;51.630;7.484;2023-03-20T19:28:35;101042.09;;;10.29;90.51
15193;BME280;7697;51.630;7.484;2023-03-20T19:33:38;101058.31;;;10.41;90.38
15193;BME280;7697;51.630;7.484;2023-03-20T19:38:40;101057.31;;;10.42;89.95
15193;BME280;7697;51.630;7.484;2023-03-20T19:43:43;101063.25;;;10.44;89.90
15193;BME280;7697;51.630;7.484;2023-03-20T19:48:46;101043.63;;;10.38;89.76
15193;BME280;7697;51.630;7.484;2023-03-20T19:53:48;101046.72;;;10.42;89.85
15193;BME280;7697;51.630;7.484;2023-03-20T19:58:52;101045.16;;;10.47;90.01
15193;BME280;7697;51.630;7.484;2023-03-20T20:03:54;101040.25;;;10.44;89.29
15193;BME280;7697;51.630;7.484;2023-03-20T20:08:57;101034.56;;;10.47;88.85
15193;BME280;7697;51.630;7.484;2023-03-20T20:14:01;101038.72;;;10.57;89.41
15193;BME280;7697;51.630;7.484;2023-03-20T20:19:03;101036.28;;;10.55;89.00
15193;BME280;7697;51.630;7.484;2023-03-20T20:24:05;101015.28;;;10.53;88.04
15193;BME280;7697;51.630;7.484;2023-03-20T20:29:09;101026.78;;;10.61;88.52
15193;BME280;7697;51.630;7.484;2023-03-20T20:34:11;101009.00;;;10.55;87.82
15193;BME280;7697;51.630;7.484;2023-03-20T20:39:12;101010.06;;;10.60;88.15
15193;BME280;7697;51.630;7.484;2023-03-20T20:44:16;101011.50;;;10.63;88.28
15193;BME280;7697;51.630;7.484;2023-03-20T20:49:17;101018.94;;;10.74;87.70
15193;BME280;7697;51.630;7.484;2023-03-20T20:54:19;101018.94;;;10.74;87.93
15193;BME280;7697;51.630;7.484;2023-03-20T20:59:22;101011.38;;;10.71;88.01
15193;BME280;7697;51.630;7.484;2023-03-20T21:04:24;101012.41;;;10.70;88.02
15193;BME280;7697;51.630;7.484;2023-03-20T21:09:26;100995.88;;;10.68;87.68
15193;BME280;7697;51.630;7.484;2023-03-20T21:14:30;101009.16;;;10.74;87.68
15193;BME280;7697;51.630;7.484;2023-03-20T21:19:33;101009.63;;;10.78;87.66
15193;BME280;7697;51.630;7.484;2023-03-20T21:24:36;100999.97;;;10.70;87.50
15193;BME280;7697;51.630;7.484;2023-03-20T21:29:40;100996.94;;;10.73;87.47
15193;BME280;7697;51.630;7.484;2023-03-20T21:34:43;101005.50;;;10.75;87.86
15193;BME280;7697;51.630;7.484;2023-03-20T21:39:48;100995.56;;;10.77;87.50
15193;BME280;7697;51.630;7.484;2023-03-20T21:44:52;100990.06;;;10.79;87.70
15193;BME280;7697;51.630;7.484;2023-03-20T21:49:54;100996.25;;;10.86;87.06
15193;BME280;7697;51.630;7.484;2023-03-20T21:54:55;100987.66;;;10.84;87.27
15193;BME280;7697;51.630;7.484;2023-03-20T22:00:01;100989.94;;;10.87;86.92
15193;BME280;7697;51.630;7.484;2023-03-20T22:05:03;100990.56;;;10.89;87.33
15193;BME280;7697;51.630;7.484;2023-03-20T22:10:05;100996.75;;;10.96;86.73
15193;BME280;7697;51.630;7.484;2023-03-20T22:15:10;100997.19;;;11.00;87.05
15193;BME280;7697;51.630;7.484;2023-03-20T22:20:12;100992.72;;;11.00;86.88
15193;BME280;7697;51.630;7.484;2023-03-20T22:25:13;100999.25;;;11.04;86.68
15193;BME280;7697;51.630;7.484;2023-03-20T22:30:17;100994.53;;;11.00;86.68
15193;BME280;7697;51.630;7.484;2023-03-20T22:35:20;100994.56;;;11.06;87.06
15193;BME280;7697;51.630;7.484;2023-03-20T22:40:22;100999.50;;;11.09;86.96
15193;BME280;7697;51.630;7.484;2023-03-20T22:45:25;101015.66;;;11.14;87.59
15193;BME280;7697;51.630;7.484;2023-03-20T22:50:27;101012.75;;;11.09;87.97
15193;BME280;7697;51.630;7.484;2023-03-20T22:55:29;101010.13;;;11.09;89.42
15193;BME280;7697;51.630;7.484;2023-03-20T23:00:33;100998.59;;;11.02;90.43
15193;BME280;7697;51.630;7.484;2023-03-20T23:05:35;101004.91;;;11.01;91.55
15193;BME280;7697;51.630;7.484;2023-03-20T23:10:41;100993.63;;;10.93;92.46
15193;BME280;7697;51.630;7.484;2023-03-20T23:15:45;100995.88;;;10.89;93.07
15193;BME280;7697;51.630;7.484;2023-03-20T23:20:47;100988.28;;;10.86;93.67
15193;BME280;7697;51.630;7.484;2023-03-20T23:25:49;100975.81;;;10.80;93.77
15193;BME280;7697;51.630;7.484;2023-03-20T23:30:52;100967.59;;;10.75;94.04
15193;BME280;7697;51.630;7.484;2023-03-20T23:35:55;100978.84;;;10.77;94.17
15193;BME280;7697;51.630;7.484;2023-03-20T23:40:57;100970.25;;;10.75;94.47
15193;BME280;7697;51.630;7.484;2023-03-20T23:46:00;100966.22;;;10.79;94.23
15193;BME280;7697;51.630;7.484;2023-03-20T23:51:02;100967.09;;;10.86;94.28
15193;BME280;7697;51.630;7.484;2023-03-20T23:56:05;100961.78;;;10.86;93.78
